createdAt,value
2022-12-03T00:00:04.010Z,2.36
2022-12-03T00:02:33.727Z,2.35
2022-12-03T00:05:01.246Z,2.35
2022-12-03T00:07:28.626Z,2.17
2022-12-03T00:09:56.001Z,2.28
2022-12-03T00:12:24.663Z,2.12
2022-12-03T00:14:51.991Z,2.07
2022-12-03T00:17:19.317Z,2.10
2022-12-03T00:19:47.295Z,2.14
2022-12-03T00:22:14.667Z,2.27
2022-12-03T00:24:42.006Z,2.27
2022-12-03T00:27:09.382Z,2.23
2022-12-03T00:29:38.067Z,2.30
2022-12-03T00:32:05.598Z,2.44
2022-12-03T00:34:32.962Z,2.41
2022-12-03T00:37:00.290Z,2.39
2022-12-03T00:39:27.627Z,2.45
2022-12-03T00:41:54.942Z,2.47
2022-12-03T00:44:22.274Z,2.20
2022-12-03T00:46:50.986Z,2.34
2022-12-03T00:49:18.388Z,2.42
2022-12-03T00:51:45.835Z,2.34
2022-12-03T00:54:13.189Z,2.14
2022-12-03T00:56:40.570Z,2.23
2022-12-03T00:59:07.889Z,2.28
2022-12-03T01:01:35.448Z,2.40
2022-12-03T01:04:04.147Z,2.32
2022-12-03T01:06:31.533Z,2.34
2022-12-03T01:08:58.851Z,2.12
2022-12-03T01:11:41.429Z,2.21
2022-12-03T01:14:09.912Z,2.19
2022-12-03T01:16:37.589Z,2.21
2022-12-03T01:19:07.185Z,2.17
2022-12-03T01:21:34.544Z,2.14
2022-12-03T01:24:01.911Z,2.12
2022-12-03T01:26:29.269Z,2.17
2022-12-03T01:28:56.606Z,2.09
2022-12-03T01:31:41.398Z,2.11
2022-12-03T01:34:10.129Z,2.19
2022-12-03T01:36:37.476Z,2.37
2022-12-03T01:39:05.430Z,2.28
2022-12-03T01:41:33.199Z,2.08
2022-12-03T01:44:00.947Z,2.09
2022-12-03T01:46:32.700Z,2.00
2022-12-03T01:49:00.101Z,1.83
2022-12-03T01:51:28.783Z,2.07
2022-12-03T01:53:56.128Z,2.10
2022-12-03T01:56:23.816Z,2.07
2022-12-03T01:58:51.243Z,2.19
2022-12-03T02:01:19.798Z,2.13
2022-12-03T02:03:47.354Z,2.18
2022-12-03T02:06:16.275Z,2.23
2022-12-03T02:08:45.312Z,2.26
2022-12-03T02:11:17.754Z,2.15
2022-12-03T02:13:45.257Z,2.12
2022-12-03T02:16:12.699Z,2.04
2022-12-03T02:18:40.148Z,2.13
2022-12-03T02:21:11.361Z,2.09
2022-12-03T02:23:42.506Z,2.13
2022-12-03T02:26:11.397Z,2.17
2022-12-03T02:28:39.062Z,2.18
2022-12-03T02:31:06.495Z,2.21
2022-12-03T02:33:33.991Z,2.09
2022-12-03T02:36:03.874Z,2.24
2022-12-03T02:38:33.376Z,2.17
2022-12-03T02:41:04.426Z,2.29
2022-12-03T02:43:32.300Z,2.04
2022-12-03T02:46:00.923Z,1.98
2022-12-03T02:48:30.243Z,1.89
2022-12-03T02:51:00.061Z,2.04
2022-12-03T02:53:28.469Z,2.01
2022-12-03T02:55:56.960Z,2.02
2022-12-03T02:58:24.948Z,1.92
2022-12-03T03:00:54.805Z,1.96
2022-12-03T03:03:23.163Z,1.76
2022-12-03T03:05:51.005Z,1.92
2022-12-03T03:08:19.194Z,1.97
2022-12-03T03:10:47.745Z,1.66
2022-12-03T03:13:17.704Z,1.62
2022-12-03T03:15:45.259Z,1.76
2022-12-03T03:18:15.058Z,1.69
2022-12-03T03:20:42.538Z,1.73
2022-12-03T03:23:15.215Z,1.54
2022-12-03T03:25:44.660Z,1.67
2022-12-03T03:28:12.796Z,1.77
2022-12-03T03:30:40.717Z,1.73
2022-12-03T03:33:08.114Z,1.74
2022-12-03T03:35:36.958Z,1.49
2022-12-03T03:38:04.499Z,1.51
2022-12-03T03:40:32.015Z,1.71
2022-12-03T03:43:00.968Z,1.67
2022-12-03T03:45:29.583Z,1.70
2022-12-03T03:47:58.297Z,1.67
2022-12-03T03:50:26.508Z,1.79
2022-12-03T03:52:55.654Z,1.80
2022-12-03T03:55:22.993Z,1.59
2022-12-03T03:57:50.436Z,1.76
2022-12-03T04:00:18.107Z,1.72
2022-12-03T04:02:45.528Z,1.81
2022-12-03T04:05:16.484Z,1.70
2022-12-03T04:07:43.861Z,1.62
2022-12-03T04:10:27.190Z,1.67
2022-12-03T04:12:57.506Z,1.48
2022-12-03T04:15:24.857Z,1.55
2022-12-03T04:18:06.170Z,1.66
2022-12-03T04:20:33.516Z,1.69
2022-12-03T04:22:59.882Z,1.78
2022-12-03T04:25:45.318Z,1.78
2022-12-03T04:28:30.080Z,1.66
2022-12-03T04:30:57.681Z,1.54
2022-12-03T04:33:42.873Z,1.39
2022-12-03T04:36:10.295Z,1.51
2022-12-03T04:38:37.642Z,1.55
2022-12-03T04:41:06.377Z,1.54
2022-12-03T04:43:34.445Z,1.44
2022-12-03T04:46:02.431Z,1.52
2022-12-03T04:48:29.827Z,1.65
2022-12-03T04:50:57.218Z,1.70
2022-12-03T04:53:24.569Z,1.71
2022-12-03T04:55:51.880Z,1.69
2022-12-03T04:58:20.567Z,1.56
2022-12-03T05:00:47.898Z,1.63
2022-12-03T05:03:15.228Z,1.73
2022-12-03T05:05:42.554Z,1.68
2022-12-03T05:08:09.942Z,1.70
2022-12-03T05:10:37.280Z,1.68
2022-12-03T05:13:04.607Z,1.82
2022-12-03T05:15:33.283Z,1.80
2022-12-03T05:18:00.683Z,1.77
2022-12-03T05:20:45.837Z,1.70
2022-12-03T05:23:18.720Z,1.58
2022-12-03T05:25:46.074Z,1.64
2022-12-03T05:28:13.427Z,1.46
2022-12-03T05:30:42.230Z,1.60
2022-12-03T05:33:09.567Z,1.69
2022-12-03T05:35:36.920Z,1.70
2022-12-03T05:38:04.278Z,1.45
2022-12-03T05:40:31.651Z,1.57
2022-12-03T05:42:58.207Z,1.56
2022-12-03T05:45:26.656Z,1.51
2022-12-03T05:47:56.524Z,1.66
2022-12-03T05:50:25.391Z,1.77
2022-12-03T05:52:52.724Z,1.63
2022-12-03T05:55:20.627Z,1.70
2022-12-03T05:57:48.283Z,1.71
2022-12-03T06:00:17.964Z,1.70
2022-12-03T06:02:45.492Z,1.61
2022-12-03T06:05:15.334Z,1.59
2022-12-03T06:07:43.081Z,1.66
2022-12-03T06:10:11.895Z,1.75
2022-12-03T06:12:39.223Z,1.69
2022-12-03T06:15:07.645Z,1.75
2022-12-03T06:17:34.995Z,1.69
2022-12-03T06:20:02.375Z,1.64
2022-12-03T06:22:31.183Z,1.81
2022-12-03T06:25:02.193Z,1.63
2022-12-03T06:27:33.615Z,1.76
2022-12-03T06:30:00.948Z,1.81
2022-12-03T06:32:28.299Z,1.90
2022-12-03T06:34:55.963Z,1.74
2022-12-03T06:37:23.462Z,1.85
2022-12-03T06:39:52.161Z,1.84
2022-12-03T06:42:19.494Z,1.83
2022-12-03T06:44:46.831Z,1.78
2022-12-03T06:47:14.158Z,1.66
2022-12-03T06:49:41.504Z,1.70
2022-12-03T06:52:08.829Z,1.70
2022-12-03T06:54:36.144Z,1.82
2022-12-03T06:57:04.833Z,1.88
2022-12-03T06:59:34.002Z,1.79
2022-12-03T07:02:01.786Z,1.86
2022-12-03T07:04:29.143Z,1.94
2022-12-03T07:06:56.463Z,1.87
2022-12-03T07:09:23.791Z,1.73
2022-12-03T07:11:51.138Z,1.87
2022-12-03T07:14:19.807Z,1.90
2022-12-03T07:16:47.564Z,1.88
2022-12-03T07:19:14.911Z,1.84
2022-12-03T07:24:34.774Z,1.74
2022-12-03T07:27:02.095Z,1.83
2022-12-03T07:29:30.755Z,1.81
2022-12-03T07:31:58.084Z,1.91
2022-12-03T07:34:25.437Z,1.89
2022-12-03T07:36:52.864Z,1.99
2022-12-03T07:39:20.199Z,2.00
2022-12-03T07:41:47.547Z,2.08
2022-12-03T07:44:15.003Z,2.01
2022-12-03T07:46:44.010Z,2.09
2022-12-03T07:49:12.057Z,2.12
2022-12-03T07:51:39.474Z,2.20
2022-12-03T07:54:06.998Z,2.23
2022-12-03T07:56:34.317Z,2.28
2022-12-03T07:59:01.668Z,2.28
2022-12-03T08:01:29.073Z,2.34
2022-12-03T08:03:57.883Z,2.30
2022-12-03T08:06:25.240Z,2.35
2022-12-03T08:08:52.604Z,2.32
2022-12-03T08:11:19.944Z,2.34
2022-12-03T08:13:47.264Z,2.35
2022-12-03T08:16:16.795Z,2.37
2022-12-03T08:18:44.675Z,2.38
2022-12-03T08:21:15.659Z,2.37
2022-12-03T08:23:43.246Z,2.43
2022-12-03T08:26:13.849Z,2.60
2022-12-03T08:28:41.195Z,2.52
2022-12-03T08:31:18.030Z,2.59
2022-12-03T08:33:45.432Z,2.55
2022-12-03T08:36:17.379Z,2.60
2022-12-03T08:38:48.416Z,2.62
2022-12-03T08:41:36.214Z,2.54
2022-12-03T08:44:12.151Z,2.55
2022-12-03T08:46:39.508Z,2.57
2022-12-03T08:49:09.658Z,2.46
2022-12-03T08:51:38.460Z,2.55
2022-12-03T08:54:08.694Z,2.62
2022-12-03T08:56:37.823Z,2.54
2022-12-03T08:59:19.638Z,2.46
2022-12-03T09:01:48.100Z,2.49
2022-12-03T09:04:19.762Z,2.38
2022-12-03T09:06:48.491Z,2.38
2022-12-03T09:09:15.839Z,2.49
2022-12-03T09:11:44.233Z,2.54
2022-12-03T09:14:18.091Z,2.32
2022-12-03T09:16:46.055Z,2.46
2022-12-03T09:19:13.442Z,2.49
2022-12-03T09:21:40.805Z,2.38
2022-12-03T09:24:09.628Z,2.42
2022-12-03T09:26:37.086Z,2.35
2022-12-03T09:29:08.942Z,2.40
2022-12-03T09:31:42.850Z,2.42
2022-12-03T09:34:10.346Z,2.46
2022-12-03T09:36:37.746Z,2.49
2022-12-03T09:39:05.291Z,2.48
2022-12-03T09:41:33.953Z,2.66
2022-12-03T09:44:04.355Z,2.75
2022-12-03T09:46:32.609Z,2.76
2022-12-03T09:49:01.033Z,2.77
2022-12-03T09:51:31.074Z,2.92
2022-12-03T09:53:59.550Z,2.90
2022-12-03T09:56:26.980Z,2.95
2022-12-03T09:58:55.842Z,2.93
2022-12-03T10:01:26.746Z,2.82
2022-12-03T10:03:56.734Z,2.98
2022-12-03T10:06:24.857Z,3.04
2022-12-03T10:08:54.457Z,3.05
2022-12-03T10:11:23.105Z,3.15
2022-12-03T10:13:51.122Z,3.12
2022-12-03T10:16:20.954Z,3.19
2022-12-03T10:18:50.641Z,3.23
2022-12-03T10:21:19.824Z,3.29
2022-12-03T10:23:50.819Z,3.34
2022-12-03T10:26:38.700Z,3.31
2022-12-03T10:29:12.915Z,3.34
2022-12-03T10:31:41.640Z,3.23
2022-12-03T10:34:09.789Z,3.24
2022-12-03T10:36:37.356Z,3.25
2022-12-03T10:39:10.074Z,3.30
2022-12-03T10:41:37.717Z,3.29
2022-12-03T10:44:12.854Z,3.22
2022-12-03T10:46:40.438Z,3.37
2022-12-03T10:49:15.987Z,3.30
2022-12-03T10:51:43.901Z,3.21
2022-12-03T10:54:17.286Z,3.19
2022-12-03T10:56:45.277Z,3.29
2022-12-03T10:59:15.462Z,3.23
2022-12-03T11:01:44.781Z,3.21
2022-12-03T11:04:19.313Z,3.18
2022-12-03T11:06:46.713Z,3.11
2022-12-03T11:09:17.248Z,2.98
2022-12-03T11:11:44.682Z,2.99
2022-12-03T11:14:12.266Z,3.04
2022-12-03T11:17:09.778Z,3.11
2022-12-03T11:19:51.945Z,3.22
2022-12-03T11:22:37.239Z,3.34
2022-12-03T11:25:23.511Z,3.36
2022-12-03T11:28:05.754Z,3.35
2022-12-03T11:30:48.169Z,3.47
2022-12-03T11:33:22.555Z,3.41
2022-12-03T11:36:07.952Z,3.53
2022-12-03T11:38:52.237Z,3.48
2022-12-03T11:41:21.457Z,3.60
2022-12-03T11:43:59.193Z,3.48
2022-12-03T11:46:27.918Z,3.58
2022-12-03T11:48:56.475Z,3.54
2022-12-03T11:51:25.225Z,3.62
2022-12-03T11:53:55.723Z,3.58
2022-12-03T11:56:25.419Z,3.68
2022-12-03T11:58:58.424Z,3.69
2022-12-03T12:01:38.328Z,3.71
2022-12-03T12:04:06.969Z,3.74
2022-12-03T12:06:42.421Z,3.79
2022-12-03T12:09:11.743Z,3.84
2022-12-03T12:11:40.397Z,3.87
2022-12-03T12:14:08.398Z,3.83
2022-12-03T12:16:40.916Z,3.77
2022-12-03T12:19:26.993Z,3.80
2022-12-03T12:21:54.475Z,3.84
2022-12-03T12:24:40.348Z,3.88
2022-12-03T12:27:08.760Z,3.84
2022-12-03T12:29:36.851Z,3.86
2022-12-03T12:32:12.014Z,3.76
2022-12-03T12:34:39.891Z,3.80
2022-12-03T12:37:10.811Z,3.95
2022-12-03T12:39:39.771Z,3.95
2022-12-03T12:42:19.276Z,3.93
2022-12-03T12:44:46.646Z,4.06
2022-12-03T12:47:14.125Z,3.99
2022-12-03T12:49:41.540Z,3.97
2022-12-03T12:52:13.071Z,3.99
2022-12-03T12:54:41.931Z,4.03
2022-12-03T12:57:13.198Z,4.02
2022-12-03T12:59:40.674Z,4.09
2022-12-03T13:02:24.963Z,4.12
2022-12-03T13:04:52.503Z,4.19
2022-12-03T13:07:19.887Z,4.11
2022-12-03T13:09:54.760Z,4.11
2022-12-03T13:12:23.374Z,4.24
2022-12-03T13:14:52.042Z,4.04
2022-12-03T13:17:22.463Z,3.97
2022-12-03T13:19:56.830Z,4.13
2022-12-03T13:22:31.058Z,4.02
2022-12-03T13:25:04.321Z,3.94
2022-12-03T13:27:32.313Z,4.02
2022-12-03T13:30:01.085Z,3.89
2022-12-03T13:32:30.782Z,3.84
2022-12-03T13:35:05.486Z,4.06
2022-12-03T13:37:33.240Z,3.90
2022-12-03T13:40:09.134Z,3.89
2022-12-03T13:42:39.196Z,3.81
2022-12-03T13:45:24.587Z,3.88
2022-12-03T13:47:54.958Z,4.01
2022-12-03T13:50:29.707Z,4.01
2022-12-03T13:52:57.583Z,3.84
2022-12-03T13:55:27.816Z,3.88
2022-12-03T13:57:55.728Z,3.89
2022-12-03T14:00:23.935Z,3.87
2022-12-03T14:02:51.335Z,3.94
2022-12-03T14:05:18.920Z,4.09
2022-12-03T14:07:46.312Z,4.09
2022-12-03T14:10:13.941Z,4.17
2022-12-03T14:12:42.687Z,4.13
2022-12-03T14:15:10.717Z,4.03
2022-12-03T14:17:38.042Z,4.01
2022-12-03T14:20:06.008Z,4.13
2022-12-03T14:22:33.514Z,4.09
2022-12-03T14:25:00.871Z,4.09
2022-12-03T14:27:28.391Z,4.07
2022-12-03T14:29:58.142Z,4.00
2022-12-03T14:32:25.539Z,4.09
2022-12-03T14:34:55.901Z,4.13
2022-12-03T14:37:23.230Z,4.17
2022-12-03T14:39:50.596Z,4.09
2022-12-03T14:42:18.257Z,4.19
2022-12-03T14:44:46.271Z,4.04
2022-12-03T14:47:15.913Z,4.11
2022-12-03T14:49:43.273Z,4.03
2022-12-03T14:52:12.454Z,4.13
2022-12-03T14:54:41.986Z,4.08
2022-12-03T14:57:09.680Z,4.13
2022-12-03T14:59:37.062Z,4.06
2022-12-03T15:02:04.475Z,4.08
2022-12-03T15:04:33.174Z,4.06
2022-12-03T15:07:00.485Z,4.01
2022-12-03T15:09:27.824Z,3.92
2022-12-03T15:11:55.181Z,3.94
2022-12-03T15:14:22.556Z,3.92
2022-12-03T15:16:49.967Z,3.81
2022-12-03T15:19:18.398Z,3.74
2022-12-03T15:21:47.047Z,3.73
2022-12-03T15:24:14.425Z,3.73
2022-12-03T15:26:41.750Z,3.71
2022-12-03T15:29:09.091Z,3.72
2022-12-03T15:31:36.566Z,3.78
2022-12-03T15:34:04.050Z,3.58
2022-12-03T15:36:31.377Z,3.74
2022-12-03T15:39:00.092Z,3.76
2022-12-03T15:41:29.801Z,3.70
2022-12-03T15:43:58.175Z,3.74
2022-12-03T15:46:26.022Z,3.62
2022-12-03T15:48:53.514Z,3.66
2022-12-03T15:51:21.166Z,3.72
2022-12-03T15:53:48.527Z,3.76
2022-12-03T15:56:17.170Z,3.76
2022-12-03T15:58:44.550Z,3.71
2022-12-03T16:01:13.313Z,3.76
2022-12-03T16:03:41.246Z,3.81
2022-12-03T16:06:08.738Z,3.85
2022-12-03T16:08:36.076Z,3.78
2022-12-03T16:11:03.399Z,3.73
2022-12-03T16:13:32.086Z,3.64
2022-12-03T16:15:59.474Z,3.55
2022-12-03T16:18:26.847Z,3.58
2022-12-03T16:20:54.186Z,3.63
2022-12-03T16:23:21.526Z,3.76
2022-12-03T16:25:48.879Z,3.71
2022-12-03T16:28:16.207Z,3.68
2022-12-03T16:30:44.894Z,3.72
2022-12-03T16:33:12.246Z,3.73
2022-12-03T16:35:39.710Z,3.67
2022-12-03T16:38:07.133Z,3.68
2022-12-03T16:40:34.445Z,3.65
2022-12-03T16:43:03.275Z,3.59
2022-12-03T16:46:02.291Z,3.65
2022-12-03T16:48:31.093Z,3.52
2022-12-03T16:50:58.409Z,3.60
2022-12-03T16:53:25.751Z,3.51
2022-12-03T16:55:53.088Z,3.61
2022-12-03T16:58:21.289Z,3.55
2022-12-03T17:00:48.782Z,3.63
2022-12-03T17:03:17.637Z,3.59
2022-12-03T17:05:46.734Z,3.60
2022-12-03T17:08:14.651Z,3.61
2022-12-03T17:10:42.282Z,3.63
2022-12-03T17:13:10.710Z,3.66
2022-12-03T17:15:38.759Z,3.66
2022-12-03T17:18:06.846Z,3.65
2022-12-03T17:20:34.730Z,3.63
2022-12-03T17:23:03.670Z,3.60
2022-12-03T17:25:31.055Z,3.64
2022-12-03T17:27:58.428Z,3.63
2022-12-03T17:30:25.773Z,3.71
2022-12-03T17:32:53.101Z,3.57
2022-12-03T17:35:20.491Z,3.62
2022-12-03T17:37:47.820Z,3.73
2022-12-03T17:40:17.121Z,3.52
2022-12-03T17:42:44.510Z,3.62
2022-12-03T17:45:26.892Z,3.63
2022-12-03T17:47:54.221Z,3.69
2022-12-03T17:50:21.564Z,3.78
2022-12-03T17:52:48.886Z,3.80
2022-12-03T17:55:26.794Z,3.71
2022-12-03T17:57:58.683Z,3.89
2022-12-03T18:00:26.036Z,3.90
2022-12-03T18:02:53.365Z,3.80
2022-12-03T18:05:20.844Z,3.88
2022-12-03T18:07:48.318Z,3.89
2022-12-03T18:10:16.042Z,3.93
2022-12-03T18:12:44.747Z,3.91
2022-12-03T18:15:12.299Z,3.89
2022-12-03T18:17:39.650Z,3.97
2022-12-03T18:20:07.767Z,4.01
2022-12-03T18:22:35.159Z,4.03
2022-12-03T18:25:02.559Z,3.95
2022-12-03T18:27:29.966Z,3.92
2022-12-03T18:29:58.705Z,4.05
2022-12-03T18:32:29.334Z,3.93
2022-12-03T18:34:57.345Z,3.94
2022-12-03T18:37:26.949Z,3.97
2022-12-03T18:39:54.654Z,3.97
2022-12-03T18:42:23.044Z,3.97
2022-12-03T18:44:51.531Z,3.98
2022-12-03T18:47:21.211Z,3.96
2022-12-03T18:49:48.951Z,3.96
2022-12-03T18:52:17.052Z,3.97
2022-12-03T18:54:44.540Z,3.97
2022-12-03T18:57:11.879Z,3.98
2022-12-03T18:59:41.578Z,3.94
2022-12-03T19:02:12.926Z,4.03
2022-12-03T19:04:41.683Z,4.02
2022-12-03T19:07:09.550Z,4.03
2022-12-03T19:09:36.939Z,4.03
2022-12-03T19:12:05.289Z,3.93
2022-12-03T19:14:35.010Z,4.01
2022-12-03T19:17:02.363Z,3.95
2022-12-03T19:19:29.940Z,3.89
2022-12-03T19:21:58.661Z,3.89
2022-12-03T19:24:26.075Z,3.88
2022-12-03T19:26:55.299Z,3.89
2022-12-03T19:29:23.285Z,3.88
2022-12-03T19:31:50.918Z,3.96
2022-12-03T19:34:18.461Z,3.91
2022-12-03T19:36:46.090Z,3.88
2022-12-03T19:39:14.872Z,3.83
2022-12-03T19:41:43.666Z,3.91
2022-12-03T19:44:12.965Z,3.91
2022-12-03T19:46:40.292Z,4.01
2022-12-03T19:49:07.932Z,4.03
2022-12-03T19:51:36.121Z,3.98
2022-12-03T19:54:04.245Z,4.07
2022-12-03T19:56:32.938Z,4.05
2022-12-03T19:59:00.302Z,4.05
2022-12-03T20:01:28.572Z,4.04
2022-12-03T20:03:56.870Z,4.10
2022-12-03T20:06:25.337Z,4.08
2022-12-03T20:08:56.081Z,4.04
2022-12-03T20:11:25.035Z,4.09
2022-12-03T20:13:55.274Z,4.13
2022-12-03T20:16:23.025Z,4.13
2022-12-03T20:18:50.855Z,4.12
2022-12-03T20:21:19.059Z,4.16
2022-12-03T20:23:46.811Z,4.12
2022-12-03T20:26:15.000Z,4.17
2022-12-03T20:28:42.406Z,4.13
2022-12-03T20:31:13.389Z,4.08
2022-12-03T20:33:41.821Z,4.05
2022-12-03T20:36:10.175Z,4.08
2022-12-03T20:38:37.723Z,3.95
2022-12-03T20:41:05.906Z,4.07
2022-12-03T20:43:33.245Z,4.02
2022-12-03T20:46:06.850Z,4.08
2022-12-03T20:48:35.785Z,3.87
2022-12-03T20:51:04.163Z,3.93
2022-12-03T20:53:35.507Z,3.93
2022-12-03T20:56:03.297Z,3.88
2022-12-03T20:58:30.924Z,3.83
2022-12-03T21:01:12.533Z,3.76
2022-12-03T21:03:44.629Z,3.71
2022-12-03T21:06:12.370Z,3.80
2022-12-03T21:08:41.961Z,3.82
2022-12-03T21:11:10.204Z,3.83
2022-12-03T21:13:40.970Z,3.80
2022-12-03T21:16:09.467Z,3.76
2022-12-03T21:18:36.893Z,3.76
2022-12-03T21:21:09.483Z,3.72
2022-12-03T21:23:36.813Z,3.59
2022-12-03T21:26:08.485Z,3.55
2022-12-03T21:28:36.032Z,3.59
2022-12-03T21:31:04.561Z,3.58
2022-12-03T21:33:32.365Z,3.68
2022-12-03T21:36:00.233Z,3.72
2022-12-03T21:38:29.299Z,3.70
2022-12-03T21:40:57.026Z,3.55
2022-12-03T21:43:24.572Z,3.72
2022-12-03T21:45:52.515Z,3.53
2022-12-03T21:48:20.465Z,3.51
2022-12-03T21:51:00.046Z,3.57
2022-12-03T21:53:28.896Z,3.46
2022-12-03T21:55:56.424Z,3.46
2022-12-03T21:58:23.767Z,3.39
2022-12-03T22:00:51.184Z,3.49
2022-12-03T22:03:18.786Z,3.54
2022-12-03T22:05:46.122Z,3.58
2022-12-03T22:08:13.770Z,3.58
2022-12-03T22:10:42.698Z,3.61
2022-12-03T22:13:10.055Z,3.63
2022-12-03T22:15:38.745Z,3.61
2022-12-03T22:18:06.266Z,3.62
2022-12-03T22:20:33.633Z,3.70
2022-12-03T22:23:01.100Z,3.66
2022-12-03T22:25:28.665Z,3.66
2022-12-03T22:27:57.330Z,3.69
2022-12-03T22:30:24.694Z,3.70
2022-12-03T22:32:52.069Z,3.72
2022-12-03T22:35:19.420Z,3.75
2022-12-03T22:37:46.755Z,3.77
2022-12-03T22:40:14.223Z,3.76
2022-12-03T22:42:44.040Z,3.57
2022-12-03T22:45:16.544Z,3.67
2022-12-03T22:47:43.911Z,3.64
2022-12-03T22:50:11.533Z,3.72
2022-12-03T22:52:38.850Z,3.62
2022-12-03T22:55:06.663Z,3.66
2022-12-03T22:57:34.008Z,3.64
2022-12-03T23:00:01.331Z,3.60
2022-12-03T23:02:30.050Z,3.63
2022-12-03T23:04:57.421Z,3.62
2022-12-03T23:07:24.859Z,3.58
2022-12-03T23:09:52.361Z,3.64
2022-12-03T23:12:19.819Z,3.64
2022-12-03T23:14:47.176Z,3.48
2022-12-03T23:17:14.511Z,3.51
2022-12-03T23:19:43.251Z,3.39
2022-12-03T23:22:10.562Z,3.49
2022-12-03T23:24:38.025Z,3.37
2022-12-03T23:27:05.426Z,3.44
2022-12-03T23:29:34.925Z,3.49
2022-12-03T23:32:02.255Z,3.47
2022-12-03T23:34:29.643Z,3.46
2022-12-03T23:36:58.352Z,3.52
2022-12-03T23:39:25.680Z,3.60
2022-12-03T23:41:53.151Z,3.59
2022-12-03T23:44:20.500Z,3.65
2022-12-03T23:46:47.992Z,3.62
2022-12-03T23:49:15.370Z,3.63
2022-12-03T23:51:42.702Z,3.76
2022-12-03T23:54:12.142Z,3.85
2022-12-03T23:56:40.882Z,3.87
2022-12-03T23:59:08.185Z,3.85
